Chicago, IL (60668)

7:29 PM CST on November 27, 2014 (GMT -0600)
KILCHICA86 | Change Station
CLOSE
Current Station
Personal Weather Station
Location: Chicago, IL
Elevation: 630 ft
Nearby Weather Stations

Elev 630 ft 41.89 °N, 87.63 °W | Updated 56 seconds ago

Overcast
Overcast
21.0 °F
Feels Like 21 °F
N
0.0
Wind Variable Wind from NW
Gusts 12.0 mph

Today
High -- | Low -- °F
--% Chance of Precip.
Yesterday
High -- | Low -- °F
Precip. -- in
6:54 AM 4:21 PM
Waxing Crescent, 35% visible
Pressure 30.45 in
Visibility 10.0 miles
Clouds Mostly Cloudy 3800 ft
Windchill 21 °F
Dew Point 12 °F
Humidity 69%
Rainfall 0.00 in
Snow Depth Not available.
UV 0 out of 12
Pollen .10 out of 12
Air Quality Not available.
Flu Activity Not available.
METAR KMDW 280053Z 34009KT 10SM BKN038 M05/M12 A3040 RMK AO2 SNE37 SLP310 P0000 T10501117

More Conditions Fewer Conditions

Pressure 30.45 in
Visibility 10.0 miles
Clouds Mostly Cloudy 3800 ft
Windchill 21 °F
Dew Point 12 °F
Humidity 69%
Rainfall 0.00 in
Snow Depth Not available.
UV 0 out of 12
Pollen .10 out of 12
Air Quality Not available.
Flu Activity Not available.
METAR KMDW 280053Z 34009KT 10SM BKN038 M05/M12 A3040 RMK AO2 SNE37 SLP310 P0000 T10501117

More Conditions Fewer Conditions

10-Day Weather Forecast

Almanac

Astronomy

Nov. 27, 2014 Rise Set
Actual Time
Civil Twilight
Nautical Twilight
Astronomical Twilight
Moon
Length of Visible Light
Length of Day
Tomorrow will be .
, % of the Moon is Illuminated

Today's Extremes

State Highs State Lows

Community

WunderPhotos

Upload Photos

1,774,148 photos uploaded!

WunderBlogs® & News

Nearby

Air Quality

  Air Quality AQ Index Pollutant
Not available.

Snow Depth

Station Depth Elevation

Earthquake Activity

City Distance Mag. Time & Date
Minimum magnitude displayed is 2.5.

Coastal Water Temperatures

Place Temperature

Nearby Weather Stations